Station: Glenburn (Cfa)  

  Atmospheric Gas Attenuation - ITU Rec 676-11   ----------------- dB/100km -----------------
Date Time Temp RH % AH g/m3 Dew Point Wind Direction Speed kph Gust kph Barometer mB Rainfall Since 9am 24GHz 47GHz 76GHz 122GHz 134GHz 241GHz
08/05 12:30 13.4 78 9.07 9.7 28 32 1013.1 0 20.6 26.8 41.9 110.1 105.2 362.2
08/05 12:20 13.6 77 9.06 9.6 28 32 1013.1 0 20.6 26.7 41.8 109.7 104.8 360.8
08/05 12:10 12.8 85 9.52 10.4 24 28 1013.1 0 21.6 27.7 44.1 115.9 112.2 386.6
08/05 12:00 12.7 84 9.35 10.1 26 28 1013.1 0 21.3 27.5 43.4 114.2 110.0 378.9
08/05 11:50 12.7 85 9.46 10.2 24 28 1013.1 0 21.5 27.6 43.9 115.4 111.5 384.2
08/05 11:40 13.1 84 9.59 10.5 20 26 1013.1 0 21.7 27.7 44.2 116.3 112.7 388.5
08/05 11:30 13.2 83 9.53 10.4 22 26 1013.1 0 21.6 27.6 43.9 115.5 111.8 385.1
08/05 11:20 13.2 78 8.96 9.5 20 24 1013.1 0 20.4 26.7 41.6 109.1 104.0 357.9
08/05 11:10 13.2 80 9.19 9.8 19 24 1013.1 0 20.9 27.0 42.5 111.7 107.1 368.8
08/05 11:00 12.9 83 9.36 10.1 19 20 1013.1 0 21.3 27.4 43.4 114.0 109.8 378.4
08/05 10:50 12.6 85 9.4 10.1 20 28 1013.1 0 21.4 27.6 43.7 114.9 110.8 381.8
08/05 10:40 12.7 83 9.24 10 22 30 1013.1 0 21.0 27.3 43.0 113.0 108.5 373.6
08/05 10:30 12.4 82 8.96 9.5 26 30 1013.1 0 20.4 26.9 42.0 110.3 105.1 361.6
08/05 10:20 12.2 84 9.07 9.6 26 30 1013.1 0 20.7 27.1 42.5 111.8 106.8 367.8
08/05 10:10 12.2 83 8.96 9.4 20 28 1013.1 0 20.4 27.0 42.1 110.6 105.3 362.6
08/05 10:00 12.3 84 9.12 9.7 17 22 1013.1 0 20.8 27.2 42.7 112.2 107.4 369.8
08/05 09:50 12.3 85 9.23 9.8 17 22 1013.1 0 21.0 27.4 43.2 113.4 108.9 375.1
08/05 09:40 12.2 88 9.5 10.3 17 22 1013.1 0 21.6 27.9 44.4 116.6 112.8 388.7
08/05 09:30 12 87 9.27 10 17 20 1013.1 0 21.1 27.5 43.5 114.3 109.9 378.5
08/05 09:20 12 87 9.27 9.9 20 32 1013.1 0 21.1 27.5 43.5 114.3 109.9 378.5
08/05 09:10 11.7 85 8.89 9.2 28 39 1013.1 0 20.3 27.0 42.1 110.5 105.1 361.5
08/05 09:00 11.9 85 9 9.5 28 33 1013.1 6.4 20.5 27.1 42.4 111.4 106.3 365.9
08/05 08:50 11.7 86 9 9.5 30 33 1013.1 6.4 20.6 27.2 42.5 111.7 106.6 366.8
08/05 08:40 11.7 86 9 9.5 24 32 1013.1 6.4 20.6 27.2 42.5 111.7 106.6 366.8
08/05 08:30 11.9 83 8.79 9.2 24 30 1013.1 6.4 20.1 26.8 41.5 109.1 103.4 355.8
08/05 08:20 11.6 87 9.04 9.5 19 20 1013.1 6.4 20.6 27.3 42.7 112.3 107.3 369.2
08/05 08:10 11.7 86 9 9.4 20 28 1013.1 6.4 20.6 27.2 42.5 111.7 106.6 366.8
08/05 08:00 11.7 85 8.89 9.3 22 26 1013.1 6.4 20.3 27.0 42.1 110.5 105.1 361.5
08/05 07:50 11.6 86 8.94 9.3 28 35 1013.1 6.4 20.4 27.1 42.3 111.2 105.9 364.4
08/05 07:40 11.4 89 9.14 9.7 22 33 1013.1 6.4 20.9 27.5 43.3 113.7 108.9 375.0
08/05 07:30 11.6 87 9.04 9.6 28 33 1013.1 6.4 20.6 27.3 42.7 112.3 107.3 369.2
08/05 07:20 11.7 86 9 9.4 32 44 1013.1 6.4 20.6 27.2 42.5 111.7 106.6 366.8
08/05 07:10 11.6 87 9.04 9.5 30 33 1013.1 6.4 20.6 27.3 42.7 112.3 107.3 369.2
08/05 07:00 11.5 89 9.19 9.7 30 35 1013.1 6.4 21.0 27.6 43.4 114.1 109.5 377.0
08/05 06:50 11.7 87 9.1 9.6 28 41 1013.1 6.4 20.8 27.3 42.9 112.8 108.0 371.7
08/05 06:40 11.6 86 8.94 9.3 28 33 1013.1 6.4 20.4 27.1 42.3 111.2 105.9 364.4
08/05 06:30 11.6 87 9.04 9.6 26 33 1013.1 6.4 20.6 27.3 42.7 112.3 107.3 369.2
08/05 06:20 11.6 87 9.04 9.5 30 35 1013.1 6.4 20.6 27.3 42.7 112.3 107.3 369.2
08/05 06:10 11.6 86 8.94 9.4 30 35 1013.1 6.4 20.4 27.1 42.3 111.2 105.9 364.4
08/05 06:00 11.3 89 9.08 9.6 26 33 1013.1 6.4 20.7 27.4 43.1 113.2 108.2 372.6
08/05 05:50 11.3 90 9.18 9.7 28 37 1013.1 6.4 21.0 27.6 43.5 114.3 109.6 377.5
08/05 05:40 11.3 89 9.08 9.6 24 30 1013.1 6.4 20.7 27.4 43.1 113.2 108.2 372.6
08/05 05:30 11.1 90 9.07 9.5 22 28 1013.1 6.4 20.7 27.5 43.1 113.4 108.4 373.1
08/05 05:20 10.8 93 9.19 9.7 17 20 1013.1 6.2 21.0 27.8 43.8 115.2 110.5 380.4
08/05 05:10 10.8 93 9.19 9.7 15 19 1013.1 6.2 21.0 27.8 43.8 115.2 110.5 380.4
08/05 05:00 10.9 92 9.15 9.6 22 26 1013.1 6.2 20.9 27.7 43.6 114.6 109.8 378.0
08/05 04:50 11 89 8.91 9.3 20 26 1013.1 6.2 20.4 27.2 42.5 111.7 106.3 365.8
08/05 04:40 10.9 90 8.95 9.3 20 22 1013.1 6.2 20.5 27.3 42.8 112.3 107.0 368.2
08/05 04:30 10.8 90 8.9 9.3 20 26 1013.1 6.2 20.4 27.3 42.6 111.9 106.4 366.2
08/05 04:20 10.8 89 8.8 9.1 22 26 1013.1 6.2 20.2 27.1 42.2 110.8 105.1 361.4
08/05 04:10 10.7 91 8.94 9.3 20 26 1013.1 6.2 20.5 27.4 42.8 112.5 107.1 368.7
08/05 04:00 10.8 89 8.8 9 24 35 1013.1 6.2 20.2 27.1 42.2 110.8 105.1 361.4
08/05 03:50 10.6 90 8.79 9.1 22 24 1013.1 6.2 20.2 27.2 42.2 110.9 105.2 361.8
08/05 03:40 10.5 91 8.83 9.1 19 24 1013.1 6.2 20.2 27.3 42.5 111.5 105.9 364.2
08/05 03:30 10.6 89 8.69 8.9 22 26 1013.1 6.2 19.9 27.0 41.8 109.8 103.8 357.0
08/05 03:20 10.8 88 8.7 8.9 32 37 1013.1 6.2 20.0 26.9 41.7 109.6 103.7 356.5
08/05 03:10 11 86 8.61 8.7 32 35 1013.1 6.2 19.7 26.7 41.3 108.3 102.2 351.3
08/05 03:00 11.1 84 8.46 8.5 33 41 1013.1 6.2 19.4 26.5 40.6 106.5 100.0 343.6
08/05 02:50 11 84 8.41 8.4 33 37 1013.1 6.2 19.3 26.4 40.4 106.1 99.4 341.7
08/05 02:40 10.7 87 8.55 8.6 32 39 1013.1 6.2 19.6 26.7 41.2 108.1 101.7 349.7
08/05 02:30 11 85 8.51 8.6 39 48 1013.1 6.2 19.5 26.6 40.9 107.2 100.8 346.5
08/05 02:20 11 84 8.41 8.5 33 43 1013.1 6.2 19.3 26.4 40.4 106.1 99.4 341.7
08/05 02:10 11 83 8.31 8.2 32 37 1013.1 6.2 19.1 26.2 40.0 105.0 98.1 336.9
08/05 02:00 11 83 8.31 8.3 35 43 1013.1 6.2 19.1 26.2 40.0 105.0 98.1 336.9
08/05 01:50 10.9 83 8.26 8.2 30 39 1013.1 6.2 19.0 26.2 39.9 104.6 97.5 335.0
08/05 01:40 11 82 8.21 8.1 35 43 1013.1 6.2 18.9 26.1 39.6 103.9 96.7 332.2
08/05 01:30 10.9 83 8.26 8.2 33 39 1013.1 6.2 19.0 26.2 39.9 104.6 97.5 335.0
08/05 01:20 10.8 82 8.11 7.9 28 37 1013.1 6.2 18.7 26.0 39.3 103.1 95.6 328.3
08/05 01:10 10.8 82 8.11 7.9 30 33 1013.1 6.2 18.7 26.0 39.3 103.1 95.6 328.3
08/05 01:00 10.7 82 8.06 7.8 26 30 1013.1 6.2 18.6 25.9 39.1 102.7 95.0 326.4
08/05 00:50 10.5 83 8.05 7.7 26 32 1013.1 6.2 18.6 26.0 39.2 102.8 95.2 326.7
08/05 00:40 10.4 83 8 7.7 24 28 1013.1 6.2 18.5 25.9 39.0 102.4 94.6 324.8
08/05 00:30 10.2 84 8 7.7 24 26 1013.1 6.2 18.5 26.0 39.1 102.7 94.9 325.6
08/05 00:20 10.1 84 7.95 7.6 22 24 1013.1 6.2 18.4 25.9 39.0 102.3 94.3 323.6
08/05 00:10 9.9 85 7.94 7.6 20 26 1013.1 6.2 18.4 25.9 39.0 102.4 94.4 324.0
08/05 00:00 9.5 87 7.92 7.4 19 24 1013.1 6.2 18.3 26.0 39.2 102.7 94.6 324.7
07/05 23:50 8.3 95 8.01 7.5 4 11 1013.1 6.2 18.6 26.5 40.1 105.3 97.4 334.1
07/05 23:40 7.9 95 7.81 7.2 4 7 1013.1 6.2 18.2 26.3 39.5 103.6 95.1 326.1
07/05 23:30 7.8 96 7.84 7.2 6 9 1013.1 6.2 18.2 26.4 39.7 104.1 95.6 328.0
07/05 23:20 7.8 97 7.92 7.3 7 9 1013.1 6.2 18.4 26.5 40.0 105.0 96.7 331.9
07/05 23:10 7.8 97 7.92 7.3 6 7 1013.1 6.2 18.4 26.5 40.0 105.0 96.7 331.9
07/05 23:00 7.8 97 7.92 7.3 6 7 1013.1 6.2 18.4 26.5 40.0 105.0 96.7 331.9
07/05 22:50 7.7 97 7.87 7.3 6 9 1013.1 6.2 18.3 26.5 39.9 104.5 96.2 329.9
07/05 22:40 7.7 97 7.87 7.3 6 7 1013.1 6.2 18.3 26.5 39.9 104.5 96.2 329.9
07/05 22:30 7.7 97 7.87 7.2 7 9 1013.1 6.2 18.3 26.5 39.9 104.5 96.2 329.9
07/05 22:20 7.7 97 7.87 7.2 6 6 1013.1 6.2 18.3 26.5 39.9 104.5 96.2 329.9
07/05 22:10 7.7 97 7.87 7.2 6 6 1013.1 6.2 18.3 26.5 39.9 104.5 96.2 329.9
07/05 22:00 7.6 97 7.82 7.1 6 7 1013.1 6.2 18.2 26.4 39.7 104.1 95.6 327.8
07/05 21:50 7.6 97 7.82 7.1 6 7 1013.1 6.2 18.2 26.4 39.7 104.1 95.6 327.8
07/05 21:40 7.6 97 7.82 7.1 6 7 1013.1 6.2 18.2 26.4 39.7 104.1 95.6 327.8
07/05 21:30 7.5 97 7.77 7.1 7 7 1013.1 6.2 18.1 26.4 39.5 103.7 95.0 325.8
07/05 21:20 7.6 96 7.74 7 6 7 1013.1 6.2 18.0 26.3 39.4 103.2 94.5 323.9
07/05 21:10 7.7 96 7.79 7.1 6 7 1013.1 6 18.1 26.3 39.5 103.6 95.1 325.9
07/05 21:00 7.8 95 7.76 7.1 4 4 1013.1 6 18.1 26.3 39.3 103.2 94.5 324.1
07/05 20:50 7.8 95 7.76 7 0 4 1013.1 6 18.1 26.3 39.3 103.2 94.5 324.1
07/05 20:40 7.8 93 7.59 6.8 4 6 1013.1 6 17.7 26.0 38.6 101.3 92.2 315.8
07/05 20:30 7.7 94 7.63 6.8 6 6 1013.1 6 17.8 26.1 38.8 101.8 92.8 318.2
07/05 20:20 7.7 94 7.63 6.8 6 6 1013.1 6 17.8 26.1 38.8 101.8 92.8 318.2
07/05 20:10 7.7 95 7.71 6.9 4 6 1013.1 6 18.0 26.2 39.2 102.7 93.9 322.0
07/05 20:00 7.7 95 7.71 6.9 2 4 1013.1 6 18.0 26.2 39.2 102.7 93.9 322.0

Last Refresh: 08-May-2026 12:10:21

Bureau of Meteorology